Time;durP1;ratioP1;P1;durP2;ratioP2;P2;SDS_P1;SDS_P2;PMS_P1;PMS_P2;Temp;Humidity;BMP_temperature;BMP_pressure;BME280_temperature;BME280_humidity;BME280_pressure;Samples;Min_cycle;Max_cycle;Signal;HPM_P1;HPM_P2
2024/03/10 00:00:34;;;;;;;8.27;5.15;;;17.70;56.20;;;;;;5092528;28;20217;-60
2024/03/10 00:03:04;;;;;;;8.73;6.00;;;17.60;56.30;;;;;;5092172;28;20282;-60
2024/03/10 00:05:29;;;;;;;6.22;5.03;;;17.60;56.40;;;;;;5092431;28;20186;-59
2024/03/10 00:07:55;;;;;;;6.10;5.50;;;17.60;56.60;;;;;;5092350;28;20181;-60
2024/03/10 00:10:20;;;;;;;9.32;5.20;;;17.60;56.50;;;;;;5091649;28;20177;-61
2024/03/10 00:12:49;;;;;;;6.00;5.18;;;17.50;56.50;;;;;;5092823;28;20261;-60
2024/03/10 00:15:15;;;;;;;8.63;5.75;;;17.50;56.50;;;;;;5091479;28;20272;-59
2024/03/10 00:17:41;;;;;;;8.80;5.55;;;17.50;56.50;;;;;;5091114;28;20632;-60
2024/03/10 00:20:08;;;;;;;8.27;5.85;;;17.50;56.60;;;;;;5092294;28;20216;-60
2024/03/10 00:22:36;;;;;;;9.30;5.28;;;17.40;56.60;;;;;;5092682;28;20269;-60
2024/03/10 00:25:03;;;;;;;8.93;5.72;;;17.40;56.70;;;;;;5092385;28;20668;-60
2024/03/10 00:27:28;;;;;;;8.20;5.05;;;17.40;56.70;;;;;;5092983;28;20627;-60
2024/03/10 00:29:54;;;;;;;7.40;5.35;;;17.40;56.80;;;;;;5092710;28;20200;-59
2024/03/10 00:32:19;;;;;;;8.02;5.57;;;17.40;56.80;;;;;;5092059;28;20174;-60
2024/03/10 00:34:45;;;;;;;6.63;5.10;;;17.30;56.90;;;;;;5092919;28;20180;-59
2024/03/10 00:37:11;;;;;;;7.97;5.93;;;17.30;56.80;;;;;;5092945;28;20173;-59
2024/03/10 00:39:36;;;;;;;7.05;5.88;;;17.30;56.80;;;;;;5092036;28;20693;-59
2024/03/10 00:42:02;;;;;;;6.22;5.30;;;17.30;56.90;;;;;;5092897;28;20702;-59
2024/03/10 00:44:30;;;;;;;8.68;5.45;;;17.30;57.00;;;;;;5092389;28;20546;-59
2024/03/10 00:46:57;;;;;;;6.20;5.40;;;17.30;57.00;;;;;;5092248;28;20188;-59
2024/03/10 00:49:23;;;;;;;7.32;5.63;;;17.20;56.90;;;;;;5092496;28;20178;-59
2024/03/10 00:51:49;;;;;;;6.43;5.38;;;17.20;56.90;;;;;;5092949;28;20260;-60
2024/03/10 00:54:15;;;;;;;8.50;5.60;;;17.20;56.90;;;;;;5091856;28;20716;-60
2024/03/10 00:56:41;;;;;;;7.68;5.18;;;17.20;56.90;;;;;;5092905;28;20252;-59
2024/03/10 00:59:08;;;;;;;6.25;5.18;;;17.20;57.00;;;;;;5090972;28;20221;-60
2024/03/10 01:01:34;;;;;;;8.05;5.95;;;17.20;57.10;;;;;;5092946;28;20181;-59
2024/03/10 01:03:59;;;;;;;8.52;5.35;;;17.10;57.00;;;;;;5092978;28;20697;-59
2024/03/10 01:06:25;;;;;;;6.00;5.40;;;17.10;57.00;;;;;;5091735;28;20178;-59
2024/03/10 01:08:51;;;;;;;8.48;5.95;;;17.10;57.10;;;;;;5092670;28;20170;-59
2024/03/10 01:11:16;;;;;;;6.90;5.70;;;17.10;57.10;;;;;;5092372;28;20177;-60
2024/03/10 01:13:43;;;;;;;6.88;5.97;;;17.00;57.10;;;;;;5091571;28;20258;-59
2024/03/10 01:16:09;;;;;;;6.15;5.53;;;17.10;57.10;;;;;;5103276;28;20602;-60
2024/03/10 01:18:34;;;;;;;6.70;5.15;;;17.00;57.10;;;;;;5112427;28;20689;-59
2024/03/10 01:21:01;;;;;;;6.15;5.55;;;17.00;57.20;;;;;;5110958;28;20204;-59
2024/03/10 01:23:27;;;;;;;8.02;5.70;;;17.00;57.10;;;;;;5112458;28;20630;-59
2024/03/10 01:25:53;;;;;;;7.35;5.38;;;17.00;57.10;;;;;;5111394;28;20193;-59
2024/03/10 01:28:18;;;;;;;7.18;5.82;;;17.00;57.10;;;;;;5111152;28;20276;-60
2024/03/10 01:30:44;;;;;;;6.78;5.22;;;17.00;57.20;;;;;;5112506;28;20256;-58
2024/03/10 01:33:10;;;;;;;7.15;5.65;;;17.00;57.20;;;;;;5112145;28;20531;-59
2024/03/10 01:35:36;;;;;;;6.28;5.35;;;17.00;57.20;;;;;;5111047;28;20169;-59
2024/03/10 01:38:02;;;;;;;5.82;5.22;;;16.90;57.20;;;;;;5111367;28;20184;-59
2024/03/10 01:40:27;;;;;;;7.38;5.70;;;17.00;57.30;;;;;;5112063;28;20209;-59
2024/03/10 01:42:56;;;;;;;5.85;5.30;;;16.90;57.20;;;;;;5111665;28;20181;-59
2024/03/10 01:45:22;;;;;;;6.05;5.45;;;16.90;57.20;;;;;;5111518;28;20180;-59
2024/03/10 01:47:47;;;;;;;6.22;5.47;;;16.90;57.40;;;;;;5112567;28;20177;-59
2024/03/10 01:50:13;;;;;;;6.65;5.38;;;16.90;57.20;;;;;;5109998;28;20268;-59
2024/03/10 01:52:39;;;;;;;6.07;5.47;;;16.90;57.30;;;;;;5112245;28;20624;-59
2024/03/10 01:55:06;;;;;;;6.28;5.70;;;16.90;57.30;;;;;;5112468;28;20173;-59
2024/03/10 01:57:32;;;;;;;6.72;5.70;;;16.90;57.30;;;;;;5111499;28;20184;-58
2024/03/10 01:59:57;;;;;;;6.63;5.20;;;16.80;57.30;;;;;;5098579;28;20676;-59
2024/03/10 02:02:23;;;;;;;6.07;5.47;;;16.90;57.30;;;;;;5091192;28;20379;-59
2024/03/10 02:04:49;;;;;;;5.93;5.18;;;16.90;57.30;;;;;;5091992;28;20642;-58
2024/03/10 02:07:16;;;;;;;6.57;5.88;;;16.80;57.20;;;;;;5091291;28;20189;-59
2024/03/10 02:09:44;;;;;;;6.30;5.70;;;16.80;57.30;;;;;;5097208;28;20310;-59
2024/03/10 02:12:10;;;;;;;5.55;4.95;;;16.80;57.30;;;;;;5111821;28;20181;-60
2024/03/10 02:14:37;;;;;;;6.30;5.57;;;16.80;57.40;;;;;;5110980;28;20226;-59
2024/03/10 02:17:03;;;;;;;6.32;5.35;;;16.80;57.30;;;;;;5111207;28;20183;-59
2024/03/10 02:19:29;;;;;;;5.72;4.95;;;16.80;57.30;;;;;;5110362;28;20201;-60
2024/03/10 02:21:56;;;;;;;5.88;5.28;;;16.80;57.30;;;;;;5111517;28;20173;-59
2024/03/10 02:24:31;;;;;;;7.22;5.85;;;16.80;57.30;;;;;;5109872;28;20211;-60
2024/03/10 02:26:57;;;;;;;6.50;5.85;;;16.80;57.10;;;;;;5112127;28;20699;-60
2024/03/10 02:29:23;;;;;;;6.50;5.75;;;16.80;57.40;;;;;;5111915;28;20264;-60
2024/03/10 02:48:14;;;;;;;6.38;5.78;;;16.70;57.20;;;;;;5115311;28;20188;-60
2024/03/10 02:50:40;;;;;;;7.03;6.00;;;16.70;57.30;;;;;;5115419;28;20177;-60
2024/03/10 02:53:05;;;;;;;6.05;5.15;;;16.70;57.20;;;;;;5115009;28;20248;-60
2024/03/10 02:55:34;;;;;;;8.10;6.50;;;16.70;57.20;;;;;;5114943;28;20587;-60
2024/03/10 02:58:06;;;;;;;7.63;5.60;;;16.70;57.20;;;;;;5115315;28;20220;-60
2024/03/10 03:00:35;;;;;;;6.65;5.80;;;16.70;57.10;;;;;;5113835;27;20211;-60
2024/03/10 03:03:01;;;;;;;6.07;5.47;;;16.60;57.20;;;;;;5115490;28;20177;-59
2024/03/10 03:05:26;;;;;;;6.10;5.50;;;16.60;57.00;;;;;;5115141;28;20181;-59
2024/03/10 03:07:57;;;;;;;6.57;5.88;;;16.60;57.20;;;;;;5114725;28;20580;-60
2024/03/10 03:10:22;;;;;;;6.90;6.20;;;16.60;57.00;;;;;;5114253;27;21687;-60
2024/03/10 03:12:48;;;;;;;6.05;5.45;;;16.60;56.90;;;;;;5114424;28;20180;-60
2024/03/10 03:15:15;;;;;;;6.20;5.57;;;16.60;57.50;;;;;;5114295;28;20259;-60
2024/03/10 03:17:44;;;;;;;5.90;5.38;;;16.60;56.90;;;;;;5115058;28;20569;-60
2024/03/10 03:20:15;;;;;;;6.70;6.10;;;16.60;57.20;;;;;;5113603;28;20570;-60
2024/03/10 03:22:44;;;;;;;6.35;5.72;;;16.60;56.80;;;;;;5100643;28;20234;-59
2024/03/10 03:25:11;;;;;;;6.68;6.03;;;16.60;56.70;;;;;;5114733;28;20177;-61
2024/03/10 03:27:38;;;;;;;6.80;6.20;;;16.60;56.70;;;;;;5114101;28;20615;-60
2024/03/10 03:30:06;;;;;;;7.10;6.43;;;16.60;56.80;;;;;;5114785;28;20701;-60
2024/03/10 03:32:32;;;;;;;6.80;6.13;;;16.60;56.60;;;;;;5114630;28;20222;-60
2024/03/10 03:34:58;;;;;;;6.50;5.90;;;16.60;56.60;;;;;;5113672;28;20169;-59
2024/03/10 03:37:24;;;;;;;7.28;6.22;;;16.60;56.60;;;;;;5114498;28;20176;-60
2024/03/10 03:39:50;;;;;;;6.60;6.00;;;16.50;56.50;;;;;;5114084;28;20213;-60
2024/03/10 03:42:16;;;;;;;5.90;5.40;;;16.60;56.70;;;;;;5113782;28;20181;-60
2024/03/10 03:44:44;;;;;;;6.40;5.80;;;16.50;56.70;;;;;;5114155;28;20245;-59
2024/03/10 03:47:09;;;;;;;6.90;6.20;;;16.50;56.60;;;;;;5114317;28;20192;-60
2024/03/10 03:49:35;;;;;;;6.85;6.05;;;16.50;56.70;;;;;;5113921;28;20174;-59
2024/03/10 03:52:01;;;;;;;7.00;6.30;;;16.50;56.60;;;;;;5114502;28;20215;-60
2024/03/10 03:54:27;;;;;;;7.13;6.43;;;16.50;56.60;;;;;;5113828;28;20628;-59
2024/03/10 03:56:52;;;;;;;9.10;6.28;;;16.50;56.70;;;;;;5113095;28;20177;-60
2024/03/10 03:59:18;;;;;;;6.90;6.20;;;16.50;56.70;;;;;;5112902;28;20217;-59
2024/03/10 04:01:43;;;;;;;6.47;5.88;;;16.50;56.50;;;;;;5114351;28;20177;-59
2024/03/10 04:04:09;;;;;;;7.10;6.40;;;16.50;56.60;;;;;;5112999;28;20181;-60
2024/03/10 04:06:34;;;;;;;6.50;5.90;;;16.50;56.70;;;;;;5114100;28;20172;-59
2024/03/10 04:09:00;;;;;;;6.45;5.85;;;16.50;56.70;;;;;;5113246;28;20184;-60
2024/03/10 04:11:25;;;;;;;7.78;6.70;;;16.50;56.60;;;;;;5113915;28;20165;-61
2024/03/10 04:13:51;;;;;;;6.88;6.18;;;16.40;56.50;;;;;;5112590;28;20171;-60
2024/03/10 04:16:17;;;;;;;6.93;6.18;;;16.40;56.50;;;;;;5113032;28;20256;-61
2024/03/10 04:18:43;;;;;;;7.00;6.30;;;16.40;56.60;;;;;;5113670;28;20619;-60
2024/03/10 04:21:08;;;;;;;7.53;6.47;;;16.40;56.60;;;;;;5113361;28;20691;-59
2024/03/10 04:23:34;;;;;;;7.25;6.28;;;16.40;56.50;;;;;;5113405;28;20218;-60
2024/03/10 04:26:00;;;;;;;6.47;5.88;;;16.40;56.50;;;;;;5113966;28;20192;-59
2024/03/10 04:28:25;;;;;;;6.90;6.30;;;16.40;56.50;;;;;;5112518;28;20631;-60
2024/03/10 04:30:51;;;;;;;6.68;6.03;;;16.40;56.50;;;;;;5111694;28;20189;-58
2024/03/10 04:33:16;;;;;;;6.35;5.75;;;16.40;56.60;;;;;;5094033;28;20188;-59
2024/03/10 04:35:42;;;;;;;6.63;6.03;;;16.40;56.50;;;;;;5112780;28;20169;-59
2024/03/10 04:38:07;;;;;;;7.10;6.50;;;16.40;56.50;;;;;;5112137;28;20157;-60
2024/03/10 04:40:33;;;;;;;6.65;5.97;;;16.40;56.50;;;;;;5112411;28;20556;-59
2024/03/10 04:42:59;;;;;;;6.97;6.30;;;16.40;56.60;;;;;;5112634;28;20643;-59
2024/03/10 04:45:25;;;;;;;6.55;5.97;;;16.40;56.50;;;;;;5112182;28;20251;-59
2024/03/10 04:47:50;;;;;;;6.78;6.07;;;16.40;56.50;;;;;;5113382;28;20184;-60
2024/03/10 04:50:18;;;;;;;6.68;6.07;;;16.40;56.60;;;;;;5112653;28;20652;-60
2024/03/10 04:52:45;;;;;;;7.25;6.55;;;16.40;56.60;;;;;;5112311;28;20173;-59
2024/03/10 04:55:11;;;;;;;6.72;6.03;;;16.30;56.60;;;;;;5112965;28;20605;-59
2024/03/10 04:57:36;;;;;;;7.40;6.63;;;16.30;56.60;;;;;;5112606;28;20197;-60
2024/03/10 05:00:09;;;;;;;6.60;5.90;;;16.30;56.60;;;;;;5112588;28;20598;-58
2024/03/10 05:02:34;;;;;;;6.07;5.47;;;16.30;56.60;;;;;;5112691;28;20169;-59
2024/03/10 05:05:04;;;;;;;7.05;6.38;;;16.30;56.60;;;;;;5112537;28;20218;-58
2024/03/10 05:07:30;;;;;;;8.48;6.25;;;16.30;56.70;;;;;;5111075;28;20682;-59
2024/03/10 05:09:55;;;;;;;7.65;6.40;;;16.30;56.60;;;;;;5112964;28;20169;-59
2024/03/10 05:12:22;;;;;;;7.32;6.65;;;16.30;56.60;;;;;;5112142;28;20272;-60
2024/03/10 05:14:48;;;;;;;6.90;6.18;;;16.30;56.60;;;;;;5111896;28;20214;-59
2024/03/10 05:17:14;;;;;;;6.35;5.85;;;16.30;56.70;;;;;;5112057;28;20265;-60
2024/03/10 05:19:45;;;;;;;6.53;5.93;;;16.30;56.60;;;;;;5112087;28;20200;-59
2024/03/10 05:22:10;;;;;;;6.40;5.80;;;16.30;56.60;;;;;;5112242;28;20226;-60
2024/03/10 05:24:42;;;;;;;7.35;6.50;;;16.30;56.60;;;;;;5112458;28;20543;-59
2024/03/10 05:27:09;;;;;;;7.05;6.35;;;16.30;56.70;;;;;;5111705;28;20181;-59
2024/03/10 05:29:35;;;;;;;6.88;6.25;;;16.30;56.60;;;;;;5112489;28;20640;-59
2024/03/10 05:32:02;;;;;;;6.72;6.13;;;16.20;56.50;;;;;;5112668;28;20188;-59
2024/03/10 05:34:28;;;;;;;6.93;6.32;;;16.20;56.60;;;;;;5111173;28;20173;-58
2024/03/10 05:36:53;;;;;;;6.60;6.00;;;16.20;56.60;;;;;;5112633;28;20267;-59
2024/03/10 05:39:19;;;;;;;7.88;6.35;;;16.20;56.60;;;;;;5111481;28;20260;-59
2024/03/10 05:41:44;;;;;;;6.53;5.93;;;16.20;56.70;;;;;;5111847;28;20259;-59
2024/03/10 05:44:10;;;;;;;6.65;6.05;;;16.20;56.50;;;;;;5111685;28;20261;-59
2024/03/10 05:46:35;;;;;;;7.05;6.35;;;16.20;56.60;;;;;;5112481;28;20256;-59
2024/03/10 05:49:02;;;;;;;6.45;5.95;;;16.20;56.50;;;;;;5111618;28;20240;-59
2024/03/10 05:51:28;;;;;;;6.32;5.72;;;16.20;56.60;;;;;;5112183;28;20184;-59
2024/03/10 05:53:53;;;;;;;6.70;6.10;;;16.20;56.60;;;;;;5111497;28;20173;-59
2024/03/10 05:56:19;;;;;;;6.90;6.30;;;16.20;56.70;;;;;;5110358;28;20499;-60
2024/03/10 05:58:45;;;;;;;6.93;6.32;;;16.20;56.60;;;;;;5112262;28;20590;-59
2024/03/10 06:01:11;;;;;;;6.93;6.32;;;16.20;56.60;;;;;;5111820;28;20671;-59
2024/03/10 06:03:37;;;;;;;6.55;5.95;;;16.20;56.70;;;;;;5110511;28;20248;-59
2024/03/10 06:06:03;;;;;;;7.90;6.80;;;16.20;56.70;;;;;;5111820;28;20267;-59
2024/03/10 06:08:29;;;;;;;7.65;6.30;;;16.20;56.70;;;;;;5111086;28;20204;-58
2024/03/10 06:10:54;;;;;;;6.88;6.18;;;16.10;56.50;;;;;;5112244;28;20667;-60
2024/03/10 06:13:20;;;;;;;7.35;6.65;;;16.10;56.60;;;;;;5110932;28;20165;-59
2024/03/10 06:15:46;;;;;;;7.30;6.60;;;16.10;56.50;;;;;;5111122;28;20682;-59
2024/03/10 06:18:31;;;;;;;6.97;6.38;;;16.20;57.20;;;;;;5116120;28;20212;-60
2024/03/10 06:26:25;;;;;;;6.50;5.90;;;16.10;56.70;;;;;;5115372;28;20168;-59
2024/03/10 06:28:50;;;;;;;6.70;6.10;;;16.10;56.70;;;;;;5115545;28;20264;-58
2024/03/10 06:31:19;;;;;;;7.28;6.57;;;16.10;56.70;;;;;;5114709;28;20173;-59
2024/03/10 06:33:48;;;;;;;6.68;6.07;;;16.10;56.70;;;;;;5115625;28;20181;-58
2024/03/10 06:36:14;;;;;;;6.90;6.30;;;16.10;56.70;;;;;;5115168;28;20310;-59
2024/03/10 06:38:41;;;;;;;6.35;5.75;;;16.10;56.70;;;;;;5114833;28;20256;-59
2024/03/10 06:41:07;;;;;;;6.40;5.80;;;16.10;56.70;;;;;;5115478;28;20264;-59
2024/03/10 06:43:33;;;;;;;7.38;6.53;;;16.10;56.80;;;;;;5114802;28;20205;-59
2024/03/10 06:45:59;;;;;;;7.43;6.55;;;16.10;56.70;;;;;;5115935;28;20225;-58
2024/03/10 06:48:24;;;;;;;6.78;6.18;;;16.10;56.80;;;;;;5114876;28;20165;-59
2024/03/10 06:50:50;;;;;;;6.70;6.10;;;16.10;56.90;;;;;;5114818;28;20176;-59
2024/03/10 06:53:15;;;;;;;7.05;6.35;;;16.10;56.90;;;;;;5114555;28;20173;-59
2024/03/10 06:55:41;;;;;;;6.65;6.05;;;16.10;56.80;;;;;;5115856;28;20184;-59
2024/03/10 06:58:06;;;;;;;6.65;6.05;;;16.10;56.80;;;;;;5114383;28;20220;-59
2024/03/10 07:00:32;;;;;;;7.85;6.28;;;16.10;56.70;;;;;;5114358;28;20220;-59
2024/03/10 07:02:59;;;;;;;6.65;6.05;;;16.20;56.80;;;;;;5114971;28;20181;-59
2024/03/10 07:05:25;;;;;;;6.82;6.13;;;16.20;56.70;;;;;;5114433;28;20177;-59
2024/03/10 07:07:51;;;;;;;6.70;6.10;;;16.20;56.70;;;;;;5114843;28;20183;-59
2024/03/10 07:10:17;;;;;;;7.15;6.50;;;16.20;56.80;;;;;;5114964;28;20684;-60
2024/03/10 07:12:43;;;;;;;7.18;6.47;;;16.10;57.30;;;;;;5114512;28;20181;-59
2024/03/10 07:15:12;;;;;;;7.00;6.25;;;16.10;56.70;;;;;;5113899;28;20173;-59
2024/03/10 07:17:38;;;;;;;7.03;5.93;;;16.10;56.70;;;;;;5115177;28;20177;-59
2024/03/10 07:20:05;;;;;;;6.30;5.80;;;16.10;56.70;;;;;;5114251;28;20212;-59
2024/03/10 07:22:32;;;;;;;6.93;6.30;;;16.20;56.80;;;;;;5114689;28;20248;-59
2024/03/10 07:24:57;;;;;;;7.20;6.53;;;16.10;56.80;;;;;;5114490;28;20205;-59
2024/03/10 07:27:24;;;;;;;6.40;5.82;;;16.20;56.80;;;;;;5113560;28;20185;-59
2024/03/10 07:29:49;;;;;;;6.65;6.13;;;16.20;56.80;;;;;;5114324;28;20173;-58
2024/03/10 07:32:17;;;;;;;6.35;5.75;;;16.20;56.80;;;;;;5114665;28;20181;-59
2024/03/10 07:34:43;;;;;;;7.45;6.72;;;16.20;56.70;;;;;;5113539;28;20180;-58
2024/03/10 07:37:09;;;;;;;6.93;6.32;;;16.20;56.70;;;;;;5114508;28;20204;-59
2024/03/10 07:39:35;;;;;;;6.90;6.18;;;16.20;56.70;;;;;;5114449;28;20238;-59
2024/03/10 07:42:00;;;;;;;7.20;6.50;;;16.20;56.70;;;;;;5113654;28;20169;-58
2024/03/10 07:44:28;;;;;;;6.63;6.03;;;16.20;56.80;;;;;;5114123;28;20169;-59
2024/03/10 07:46:53;;;;;;;6.00;5.50;;;16.20;56.80;;;;;;5113560;28;20181;-59
2024/03/10 07:49:19;;;;;;;6.57;5.85;;;16.20;56.80;;;;;;5113823;28;20310;-60
2024/03/10 07:51:44;;;;;;;5.97;5.47;;;16.20;56.80;;;;;;5114732;28;20209;-59
2024/03/10 07:54:10;;;;;;;6.70;6.10;;;16.20;56.90;;;;;;5113544;28;20169;-61
2024/03/10 07:56:36;;;;;;;6.57;5.97;;;16.20;56.90;;;;;;5114350;28;20181;-61
2024/03/10 07:59:02;;;;;;;6.18;5.57;;;16.20;56.80;;;;;;5113262;28;20228;-59
2024/03/10 08:01:27;;;;;;;6.95;6.35;;;16.20;56.80;;;;;;5112738;28;20215;-59
2024/03/10 08:03:54;;;;;;;6.32;5.72;;;16.20;56.80;;;;;;5114318;28;20298;-59
2024/03/10 08:06:21;;;;;;;6.70;6.10;;;16.30;56.80;;;;;;5113930;28;20177;-60
2024/03/10 08:08:47;;;;;;;6.78;6.18;;;16.30;56.70;;;;;;5113355;28;20173;-60
2024/03/10 08:11:13;;;;;;;6.47;5.88;;;16.30;57.30;;;;;;5113773;28;20545;-61
2024/03/10 08:13:40;;;;;;;6.03;5.53;;;16.30;56.80;;;;;;5113533;28;20756;-61
2024/03/10 08:16:06;;;;;;;6.18;5.68;;;16.30;56.80;;;;;;5112326;28;20181;-62
2024/03/10 08:18:32;;;;;;;6.80;6.10;;;16.30;56.80;;;;;;5112856;28;20196;-61
2024/03/10 08:20:57;;;;;;;6.30;5.72;;;16.40;56.80;;;;;;5114024;28;20242;-61
2024/03/10 08:23:23;;;;;;;6.15;5.60;;;16.40;56.70;;;;;;5112387;28;20177;-62
2024/03/10 08:25:49;;;;;;;6.85;5.57;;;16.40;56.60;;;;;;5114014;28;20675;-61
2024/03/10 08:28:14;;;;;;;11.40;6.03;;;16.40;56.70;;;;;;5113529;28;20233;-59
2024/03/10 08:30:41;;;;;;;8.55;6.50;;;16.40;56.80;;;;;;5113070;28;20596;-59
2024/03/10 08:33:07;;;;;;;6.60;6.00;;;16.30;57.20;;;;;;5112958;28;20284;-60
2024/03/10 08:35:32;;;;;;;6.80;5.70;;;16.40;57.00;;;;;;5113116;28;20599;-60
2024/03/10 08:37:59;;;;;;;6.68;5.47;;;16.30;57.10;;;;;;5112772;28;20161;-60
2024/03/10 08:40:24;;;;;;;6.20;5.70;;;16.30;57.10;;;;;;5112430;28;20216;-59
2024/03/10 08:42:50;;;;;;;6.13;5.53;;;16.30;57.60;;;;;;5113617;28;20180;-59
2024/03/10 08:45:15;;;;;;;6.15;5.50;;;16.30;57.90;;;;;;5112060;28;20169;-59
2024/03/10 08:47:41;;;;;;;7.88;5.85;;;16.30;57.90;;;;;;5113317;28;20181;-59
2024/03/10 08:50:08;;;;;;;11.98;6.13;;;16.30;57.90;;;;;;5113286;28;20185;-60
2024/03/10 08:52:34;;;;;;;5.95;5.28;;;16.30;58.00;;;;;;5113235;28;20222;-60
2024/03/10 08:55:00;;;;;;;6.72;5.70;;;16.30;58.10;;;;;;5112827;28;20169;-60
2024/03/10 08:57:27;;;;;;;6.20;5.60;;;16.30;58.00;;;;;;5112216;28;20268;-59
2024/03/10 08:59:54;;;;;;;6.00;5.50;;;16.30;57.90;;;;;;5112576;28;20213;-60
2024/03/10 09:02:23;;;;;;;7.00;6.38;;;16.30;57.60;;;;;;5112682;28;20173;-60
2024/03/10 09:04:49;;;;;;;6.72;6.13;;;16.40;57.40;;;;;;5112299;28;20260;-60
2024/03/10 09:07:14;;;;;;;6.72;5.50;;;16.40;57.40;;;;;;5112939;28;20261;-60
2024/03/10 09:09:40;;;;;;;6.40;5.80;;;16.40;58.00;;;;;;5113152;28;20204;-60
2024/03/10 09:12:06;;;;;;;5.88;5.38;;;16.40;57.30;;;;;;5112135;28;20199;-60
2024/03/10 09:14:31;;;;;;;6.63;5.95;;;16.40;57.40;;;;;;5112347;28;20192;-60
2024/03/10 09:17:00;;;;;;;6.78;5.53;;;16.40;57.50;;;;;;5112952;28;20177;-60
2024/03/10 09:19:25;;;;;;;6.05;5.50;;;16.40;57.60;;;;;;5111441;28;20711;-60
2024/03/10 09:21:51;;;;;;;5.93;5.32;;;16.40;57.70;;;;;;5112859;28;20172;-60
2024/03/10 09:24:16;;;;;;;6.22;5.72;;;16.40;57.70;;;;;;5112576;28;20248;-61
2024/03/10 09:26:42;;;;;;;6.22;5.65;;;16.40;57.70;;;;;;5111767;28;20177;-61
2024/03/10 09:29:07;;;;;;;5.60;5.10;;;16.40;57.80;;;;;;5112554;28;20554;-60
2024/03/10 09:31:34;;;;;;;5.60;5.05;;;16.40;57.70;;;;;;5112532;28;20504;-60
2024/03/10 09:33:59;;;;;;;6.85;6.15;;;16.40;57.70;;;;;;5112203;28;20204;-60
2024/03/10 09:36:26;;;;;;;6.30;5.70;;;16.40;57.70;;;;;;5111604;28;20649;-60
2024/03/10 09:38:52;;;;;;;6.30;5.50;;;16.40;57.60;;;;;;5112383;28;20199;-59
2024/03/10 09:41:18;;;;;;;6.43;5.82;;;16.40;57.70;;;;;;5111123;28;20586;-60
2024/03/10 09:43:44;;;;;;;6.03;5.53;;;16.40;57.70;;;;;;5112438;28;20177;-59
2024/03/10 09:46:13;;;;;;;6.25;5.65;;;16.40;57.90;;;;;;5093808;28;20184;-60
2024/03/10 09:48:42;;;;;;;6.03;5.30;;;16.40;57.80;;;;;;5110142;28;20665;-60
2024/03/10 09:51:13;;;;;;;6.53;5.93;;;16.40;57.60;;;;;;5094594;28;20201;-62
2024/03/10 09:53:41;;;;;;;6.13;5.53;;;16.40;57.60;;;;;;5110651;28;20267;-60
2024/03/10 09:56:08;;;;;;;5.95;5.45;;;16.40;57.60;;;;;;5111764;28;20230;-60
2024/03/10 09:58:38;;;;;;;7.45;5.63;;;16.40;57.70;;;;;;5111575;28;20752;-60
2024/03/10 10:01:11;;;;;;;5.63;5.13;;;16.40;57.80;;;;;;5111448;28;20209;-60
2024/03/10 10:03:38;;;;;;;5.78;5.20;;;16.40;57.90;;;;;;5110820;28;20211;-60
2024/03/10 10:06:04;;;;;;;5.78;5.28;;;16.40;57.80;;;;;;5110221;28;20173;-60
2024/03/10 10:08:29;;;;;;;5.82;5.32;;;16.40;57.80;;;;;;5109649;28;20188;-60
2024/03/10 10:10:58;;;;;;;6.50;5.90;;;16.40;57.80;;;;;;5112304;28;20185;-60
2024/03/10 10:13:28;;;;;;;6.25;5.75;;;16.40;57.80;;;;;;5112250;28;20275;-60
2024/03/10 10:15:54;;;;;;;5.97;5.45;;;16.40;57.70;;;;;;5111240;28;20242;-59
2024/03/10 10:18:21;;;;;;;6.18;5.57;;;16.40;57.70;;;;;;5111969;28;20177;-61
2024/03/10 10:20:53;;;;;;;6.32;5.82;;;16.40;57.80;;;;;;5112168;28;20253;-60
2024/03/10 10:23:26;;;;;;;5.32;4.90;;;16.40;57.80;;;;;;5111131;28;20493;-60
2024/03/10 10:25:54;;;;;;;6.15;5.50;;;16.40;57.80;;;;;;5111702;28;20809;-60
2024/03/10 10:28:20;;;;;;;5.20;4.72;;;16.40;57.90;;;;;;5110521;28;20180;-60
2024/03/10 10:30:45;;;;;;;5.78;5.28;;;16.40;57.90;;;;;;5111467;28;20252;-59
2024/03/10 10:33:12;;;;;;;5.43;4.93;;;16.50;57.90;;;;;;5110914;28;20587;-60
2024/03/10 10:35:39;;;;;;;9.77;5.30;;;16.40;57.80;;;;;;5111066;28;20180;-59
2024/03/10 10:38:11;;;;;;;7.03;5.53;;;16.40;57.80;;;;;;5111853;28;20177;-60
2024/03/10 10:40:54;;;;;;;5.88;5.38;;;16.50;57.90;;;;;;5111735;28;20204;-59
2024/03/10 10:43:21;;;;;;;6.30;5.70;;;16.50;57.80;;;;;;5108486;28;20199;-60
2024/03/10 10:45:48;;;;;;;6.03;5.13;;;16.50;57.80;;;;;;5111500;28;20177;-60
2024/03/10 10:48:14;;;;;;;5.88;5.38;;;16.50;57.90;;;;;;5111611;28;20268;-63
2024/03/10 10:50:42;;;;;;;5.32;4.82;;;16.50;57.90;;;;;;5110914;28;20671;-60
2024/03/10 10:53:10;;;;;;;5.72;5.20;;;16.60;58.00;;;;;;5111539;28;20643;-60
2024/03/10 10:55:39;;;;;;;6.35;5.85;;;16.60;57.90;;;;;;5110201;28;20551;-60
2024/03/10 10:58:05;;;;;;;5.65;5.13;;;16.60;57.80;;;;;;5109363;28;20270;-61
2024/03/10 11:00:31;;;;;;;5.18;4.68;;;16.60;57.80;;;;;;5111233;28;20593;-60
2024/03/10 11:03:13;;;;;;;6.43;5.82;;;16.70;57.80;;;;;;5113317;28;20270;-60
2024/03/10 11:05:40;;;;;;;5.90;5.30;;;16.80;57.70;;;;;;5114358;28;20176;-60
2024/03/10 11:08:05;;;;;;;5.63;5.13;;;16.70;57.70;;;;;;5114672;28;20173;-60
2024/03/10 11:10:48;;;;;;;5.50;5.00;;;16.80;57.70;;;;;;5113613;28;20214;-60
2024/03/10 11:13:14;;;;;;;5.97;5.47;;;16.80;57.80;;;;;;5112267;28;20230;-60
2024/03/10 11:15:44;;;;;;;5.43;4.93;;;16.80;57.80;;;;;;5115050;28;20165;-60
2024/03/10 11:18:25;;;;;;;5.75;5.25;;;16.80;57.80;;;;;;5113594;28;20188;-61
2024/03/10 11:20:51;;;;;;;6.10;5.50;;;16.80;57.80;;;;;;5114862;28;20238;-60
2024/03/10 11:23:38;;;;;;;5.57;5.07;;;16.80;57.90;;;;;;5113666;28;20169;-60
2024/03/10 11:26:08;;;;;;;6.20;5.50;;;16.70;57.90;;;;;;5113755;28;20272;-60
2024/03/10 11:28:56;;;;;;;7.22;5.57;;;16.80;58.00;;;;;;5115195;28;20195;-61
2024/03/10 11:31:27;;;;;;;7.22;5.55;;;16.80;58.00;;;;;;5114876;28;20172;-62
2024/03/10 11:33:54;;;;;;;9.07;5.63;;;16.80;58.00;;;;;;5114411;28;20173;-60
2024/03/10 11:36:23;;;;;;;7.15;6.28;;;16.90;58.20;;;;;;5112413;28;20181;-72
2024/03/10 11:38:52;;;;;;;8.32;5.60;;;16.90;58.30;;;;;;5110560;27;20176;-66
2024/03/10 11:41:20;;;;;;;7.05;5.97;;;17.00;58.20;;;;;;5117785;27;20605;-67
2024/03/10 11:43:47;;;;;;;8.30;6.35;;;17.20;58.20;;;;;;5114776;28;20176;-69
2024/03/10 11:46:25;;;;;;;13.80;6.22;;;17.20;58.20;;;;;;5110788;28;20264;-71
2024/03/10 11:48:53;;;;;;;10.90;7.25;;;17.20;58.40;;;;;;5108135;27;20176;-66
2024/03/10 11:51:29;;;;;;;10.13;6.93;;;17.30;58.60;;;;;;5107815;27;20186;-66
2024/03/10 11:53:55;;;;;;;11.73;7.82;;;17.30;58.80;;;;;;5109456;28;20296;-67
2024/03/10 11:56:21;;;;;;;16.02;7.45;;;17.30;58.90;;;;;;5117863;27;20219;-71
2024/03/10 11:58:46;;;;;;;10.95;6.63;;;17.30;59.10;;;;;;5113928;28;20221;-69
2024/03/10 12:01:12;;;;;;;7.38;6.43;;;17.30;59.40;;;;;;5113065;28;20205;-70
2024/03/10 12:03:39;;;;;;;15.20;7.72;;;17.40;59.40;;;;;;5106294;28;20188;-71
2024/03/10 12:06:05;;;;;;;9.45;7.07;;;17.40;59.40;;;;;;5093727;28;20260;-70
2024/03/10 12:08:34;;;;;;;10.23;6.30;;;17.40;59.40;;;;;;5092868;28;20265;-68
2024/03/10 12:11:01;;;;;;;8.73;6.63;;;17.40;59.50;;;;;;5093566;28;20174;-68
2024/03/10 12:13:27;;;;;;;11.38;7.15;;;17.40;59.40;;;;;;5130229;27;20631;-69
2024/03/10 12:15:58;;;;;;;8.80;6.80;;;17.40;59.40;;;;;;5133454;27;20176;-68
2024/03/10 12:18:24;;;;;;;14.43;7.35;;;17.50;59.40;;;;;;5133262;27;20161;-69
2024/03/10 12:20:50;;;;;;;10.25;6.95;;;17.50;59.30;;;;;;5116871;27;20573;-69
2024/03/10 12:23:15;;;;;;;9.73;6.97;;;17.50;59.30;;;;;;5091885;28;20170;-68
2024/03/10 12:25:44;;;;;;;10.35;7.22;;;17.50;59.30;;;;;;5092296;28;20177;-68
2024/03/10 12:28:13;;;;;;;11.32;7.13;;;17.60;59.20;;;;;;5092697;28;20550;-68
2024/03/10 12:30:40;;;;;;;8.50;6.45;;;17.70;59.10;;;;;;5093098;28;20201;-68
2024/03/10 12:33:08;;;;;;;7.68;6.15;;;17.70;59.10;;;;;;5093351;28;20170;-69
2024/03/10 12:35:34;;;;;;;10.82;6.47;;;17.80;58.90;;;;;;5092431;28;20193;-67
2024/03/10 12:37:59;;;;;;;7.90;6.80;;;17.80;58.90;;;;;;5093948;28;20178;-67
2024/03/10 12:40:26;;;;;;;9.18;6.53;;;17.80;59.10;;;;;;5092696;28;20217;-68
2024/03/10 12:42:51;;;;;;;9.57;7.00;;;17.80;59.10;;;;;;5092672;28;20188;-68
2024/03/10 12:45:17;;;;;;;12.48;7.57;;;17.80;59.80;;;;;;5109700;27;20181;-68
2024/03/10 12:47:43;;;;;;;12.13;7.72;;;17.70;59.30;;;;;;5112660;27;20184;-66
2024/03/10 12:50:10;;;;;;;11.50;7.60;;;17.70;59.30;;;;;;5110667;28;20722;-74
2024/03/10 12:52:35;;;;;;;12.75;8.25;;;17.70;59.40;;;;;;5108932;28;20185;-69
2024/03/10 12:55:01;;;;;;;10.70;7.75;;;17.70;59.30;;;;;;5111863;28;20531;-72
2024/03/10 12:57:27;;;;;;;12.73;8.75;;;17.70;59.30;;;;;;5102002;28;20189;-69
2024/03/10 12:59:52;;;;;;;12.63;7.97;;;17.70;59.30;;;;;;5110738;28;20940;-70
2024/03/10 13:02:18;;;;;;;11.65;7.85;;;17.70;59.40;;;;;;5111771;28;20597;-72
2024/03/10 13:04:43;;;;;;;11.60;7.90;;;17.70;59.20;;;;;;5112364;28;20264;-72